Time;durP1;ratioP1;P1;durP2;ratioP2;P2;SDS_P1;SDS_P2;PMS_P1;PMS_P2;Temp;Humidity;BMP_temperature;BMP_pressure;BME280_temperature;BME280_humidity;BME280_pressure;Samples;Min_cycle;Max_cycle;Signal;HPM_P1;HPM_P2
2021/03/25 00:00:51;;;;;;;34.63;17.83;;;;;;;5.70;67.83;101223.19;5004398;28;20227;-65
2021/03/25 00:03:19;;;;;;;35.60;18.17;;;;;;;5.68;67.69;101211.78;5009336;28;20732;-65
2021/03/25 00:05:49;;;;;;;34.57;18.30;;;;;;;5.63;68.32;101222.50;5009672;28;20210;-66
2021/03/25 00:08:21;;;;;;;33.90;17.23;;;;;;;5.61;68.58;101226.97;5006416;28;20622;-66
2021/03/25 00:10:47;;;;;;;35.67;18.50;;;;;;;5.56;68.54;101227.13;5010600;28;20222;-66
2021/03/25 00:13:13;;;;;;;36.13;17.87;;;;;;;5.53;68.79;101226.41;5010418;28;20244;-66
2021/03/25 00:15:40;;;;;;;40.67;20.70;;;;;;;5.52;69.01;101236.09;5009408;28;20211;-67
2021/03/25 00:18:07;;;;;;;36.03;18.57;;;;;;;5.52;69.32;101227.31;5010508;28;20205;-66
2021/03/25 00:20:35;;;;;;;39.67;19.57;;;;;;;5.54;69.82;101231.63;5159133;23;20792;-65
2021/03/25 00:23:01;;;;;;;38.63;19.23;;;;;;;5.56;70.10;101228.91;5025587;28;20195;-65
2021/03/25 00:25:30;;;;;;;41.73;19.53;;;;;;;5.63;70.71;101230.44;5022263;28;20206;-66
2021/03/25 00:27:56;;;;;;;42.37;21.03;;;;;;;5.67;70.58;101232.06;5018649;28;20206;-66
2021/03/25 00:30:26;;;;;;;39.83;19.90;;;;;;;5.74;70.94;101230.94;5020904;28;20226;-65
2021/03/25 00:32:52;;;;;;;40.97;20.80;;;;;;;5.79;71.02;101230.78;5002931;28;20307;-65
2021/03/25 00:35:18;;;;;;;44.73;21.30;;;;;;;5.83;71.25;101229.75;5004123;28;20203;-66
2021/03/25 00:37:46;;;;;;;40.90;20.13;;;;;;;5.85;71.23;101228.78;5007664;28;20214;-65
2021/03/25 00:40:13;;;;;;;39.93;20.73;;;;;;;5.87;71.21;101224.31;5006747;28;20234;-65
2021/03/25 00:42:39;;;;;;;40.63;20.70;;;;;;;5.90;71.39;101226.03;5009345;28;20198;-66
2021/03/25 00:45:11;;;;;;;42.60;20.67;;;;;;;5.92;71.65;101230.31;5008418;28;20640;-66
2021/03/25 00:47:38;;;;;;;44.37;21.10;;;;;;;5.95;71.42;101232.00;5009944;28;20207;-65
2021/03/25 00:50:07;;;;;;;43.43;21.47;;;;;;;5.97;71.59;101246.03;5007479;28;20713;-65
2021/03/25 00:52:33;;;;;;;47.60;22.27;;;;;;;5.99;71.61;101241.56;5002689;28;20227;-65
2021/03/25 00:55:00;;;;;;;52.27;23.00;;;;;;;6.02;71.53;101238.81;5004094;28;20203;-65
2021/03/25 00:57:27;;;;;;;46.37;23.73;;;;;;;6.04;71.57;101237.00;5005418;28;20203;-63
2021/03/25 00:59:53;;;;;;;41.37;22.30;;;;;;;6.09;71.53;101242.13;5009671;28;20229;-65
2021/03/25 01:02:20;;;;;;;55.37;22.57;;;;;;;6.12;71.54;101226.13;5002496;28;20217;-64
2021/03/25 01:04:46;;;;;;;46.17;22.80;;;;;;;6.13;71.46;101233.13;5009591;28;20205;-66
2021/03/25 01:07:12;;;;;;;56.40;25.57;;;;;;;6.14;71.56;101226.94;5003642;28;20209;-65
2021/03/25 01:09:38;;;;;;;51.73;25.03;;;;;;;6.15;71.57;101228.66;5001757;28;20808;-65
2021/03/25 01:12:06;;;;;;;48.20;23.87;;;;;;;6.15;71.45;101231.31;5007117;28;20203;-65
2021/03/25 01:14:33;;;;;;;47.60;22.67;;;;;;;6.15;71.53;101234.81;5008277;28;20800;-66
2021/03/25 01:17:02;;;;;;;56.83;25.20;;;;;;;6.14;71.41;101230.44;5005681;28;20654;-65
2021/03/25 01:19:31;;;;;;;52.13;25.80;;;;;;;6.12;71.21;101231.41;5002406;28;20257;-65
2021/03/25 01:21:58;;;;;;;35.10;19.60;;;;;;;6.08;71.11;101224.53;5007442;28;20754;-65
2021/03/25 01:24:25;;;;;;;37.50;20.40;;;;;;;6.03;70.89;101226.47;5005685;28;20684;-64
2021/03/25 01:26:52;;;;;;;41.77;21.30;;;;;;;5.93;70.61;101225.91;4999816;28;20225;-65
2021/03/25 01:29:20;;;;;;;46.80;23.13;;;;;;;5.84;70.62;101219.13;5005596;28;20207;-65
2021/03/25 01:31:46;;;;;;;63.77;30.53;;;;;;;5.79;70.62;101217.56;5001066;28;20206;-65
2021/03/25 01:34:14;;;;;;;54.53;27.00;;;;;;;5.77;70.45;101214.97;5004861;28;20231;-65
2021/03/25 01:36:40;;;;;;;56.43;27.53;;;;;;;5.74;70.69;101217.72;5008786;28;20203;-65
2021/03/25 01:39:07;;;;;;;48.63;22.93;;;;;;;5.71;70.89;101219.63;5004923;28;20268;-65
2021/03/25 01:41:35;;;;;;;45.53;22.57;;;;;;;5.64;70.75;101226.03;5009630;28;20223;-63
2021/03/25 01:44:02;;;;;;;48.03;22.57;;;;;;;5.49;70.21;101224.75;5006473;28;20200;-65
2021/03/25 01:46:31;;;;;;;46.00;23.23;;;;;;;5.35;70.39;101217.31;4997945;28;20224;-64
2021/03/25 01:48:59;;;;;;;46.33;22.70;;;;;;;5.28;70.17;101221.03;5008370;28;20238;-64
2021/03/25 01:51:49;;;;;;;45.57;23.73;;;;;;;5.24;70.41;101219.41;5003943;28;20223;-65
2021/03/25 01:54:44;;;;;;;48.50;22.70;;;;;;;5.19;70.88;101224.00;5006746;28;20704;-64
2021/03/25 01:57:33;;;;;;;46.83;22.23;;;;;;;5.15;70.89;101215.31;5005994;28;20265;-65
2021/03/25 02:00:16;;;;;;;40.43;19.50;;;;;;;5.13;71.19;101210.97;5003055;28;20234;-65
2021/03/25 02:02:55;;;;;;;39.63;19.67;;;;;;;5.08;70.59;101215.53;5008650;28;20334;-65
2021/03/25 02:05:26;;;;;;;45.33;21.77;;;;;;;5.03;70.62;101210.38;5007948;28;20295;-65
2021/03/25 02:08:02;;;;;;;41.20;20.80;;;;;;;5.00;70.71;101213.16;5002891;28;20203;-63
2021/03/25 02:10:37;;;;;;;42.63;21.57;;;;;;;4.99;70.65;101205.28;5005645;28;20605;-65
2021/03/25 02:13:12;;;;;;;42.57;21.73;;;;;;;4.97;71.00;101204.47;5010436;28;20254;-64
2021/03/25 02:15:48;;;;;;;41.17;20.10;;;;;;;4.94;71.11;101194.84;5003044;28;20218;-65
2021/03/25 02:18:22;;;;;;;35.70;18.33;;;;;;;4.89;70.68;101197.63;5010526;28;20213;-65
2021/03/25 02:21:09;;;;;;;39.77;20.80;;;;;;;4.83;70.98;101191.69;5008279;28;20236;-65
2021/03/25 02:23:53;;;;;;;43.33;21.50;;;;;;;4.78;70.43;101198.88;5013226;28;20205;-64
2021/03/25 02:26:24;;;;;;;46.77;21.80;;;;;;;4.71;70.46;101187.63;5010291;28;20692;-64
2021/03/25 02:29:08;;;;;;;48.03;22.33;;;;;;;4.64;70.58;101191.41;5007945;28;20203;-62
2021/03/25 02:31:39;;;;;;;54.77;25.00;;;;;;;4.60;71.03;101189.75;5010470;28;20245;-65
2021/03/25 02:34:09;;;;;;;63.07;26.73;;;;;;;4.58;71.26;101182.78;5007790;28;20230;-64
2021/03/25 02:36:43;;;;;;;59.50;28.47;;;;;;;4.58;70.94;101188.94;5014075;28;20581;-64
2021/03/25 02:39:12;;;;;;;58.73;26.40;;;;;;;4.57;71.01;101181.94;5011337;28;20203;-64
2021/03/25 02:41:43;;;;;;;61.07;27.90;;;;;;;4.56;71.29;101171.41;5012277;28;20261;-62
2021/03/25 02:44:11;;;;;;;54.03;26.63;;;;;;;4.55;71.88;101170.56;5010119;28;20207;-64
2021/03/25 02:46:41;;;;;;;59.00;25.47;;;;;;;4.55;71.67;101173.19;5008144;28;20203;-64
2021/03/25 02:49:10;;;;;;;52.93;26.57;;;;;;;4.53;71.79;101165.31;5013678;28;20203;-64
2021/03/25 02:51:40;;;;;;;65.33;27.50;;;;;;;4.53;72.25;101167.97;5011127;28;20609;-65
2021/03/25 02:54:07;;;;;;;59.07;26.63;;;;;;;4.50;72.20;101168.03;5013462;28;20219;-64
2021/03/25 02:56:40;;;;;;;59.67;27.63;;;;;;;4.49;71.81;101161.03;5012636;28;20207;-62
2021/03/25 02:59:11;;;;;;;62.53;28.90;;;;;;;4.47;72.44;101164.66;5010299;28;20209;-64
2021/03/25 03:01:43;;;;;;;64.70;29.17;;;;;;;4.44;72.03;101165.63;5014429;28;20215;-61
2021/03/25 03:04:17;;;;;;;64.20;29.33;;;;;;;4.43;72.62;101168.28;5011140;28;20293;-65
2021/03/25 03:06:48;;;;;;;65.97;29.27;;;;;;;4.39;72.77;101161.38;5012170;28;20285;-64
2021/03/25 03:09:18;;;;;;;67.77;30.33;;;;;;;4.37;72.52;101168.47;5008840;28;20293;-64
2021/03/25 03:11:48;;;;;;;54.40;25.67;;;;;;;4.34;72.42;101163.28;5003845;28;20925;-63
2021/03/25 03:14:19;;;;;;;57.07;27.47;;;;;;;4.32;72.85;101165.09;5012769;28;20231;-64
2021/03/25 03:16:51;;;;;;;52.80;25.43;;;;;;;4.31;72.41;101172.13;5008216;28;20676;-64
2021/03/25 03:19:22;;;;;;;55.70;26.60;;;;;;;4.26;73.28;101167.94;5011812;28;20689;-63
2021/03/25 03:21:54;;;;;;;57.23;25.43;;;;;;;4.23;73.26;101168.00;5006629;28;20209;-64
2021/03/25 03:24:21;;;;;;;54.80;25.27;;;;;;;4.18;72.60;101158.47;5010724;28;20635;-63
2021/03/25 03:26:52;;;;;;;51.37;23.77;;;;;;;4.15;72.72;101162.94;5013085;28;20229;-64
2021/03/25 03:29:20;;;;;;;51.80;24.23;;;;;;;4.11;72.72;101169.25;5012758;28;20234;-63
2021/03/25 03:31:50;;;;;;;52.63;23.93;;;;;;;4.09;72.77;101157.88;5014104;28;20636;-64
2021/03/25 03:34:21;;;;;;;49.33;22.50;;;;;;;4.06;73.55;101165.88;5012820;28;20227;-65
2021/03/25 03:36:51;;;;;;;48.50;23.37;;;;;;;4.03;73.59;101172.06;5021585;28;20223;-65
2021/03/25 03:39:20;;;;;;;51.83;23.33;;;;;;;4.02;74.15;101172.13;5020810;28;20542;-62
2021/03/25 03:41:50;;;;;;;51.00;24.70;;;;;;;4.01;73.40;101173.88;5026617;28;20301;-64
2021/03/25 03:44:22;;;;;;;47.53;24.17;;;;;;;3.99;73.84;101164.28;5024794;28;20202;-64
2021/03/25 03:46:50;;;;;;;51.87;24.80;;;;;;;3.98;73.83;101167.84;5014303;28;20289;-66
2021/03/25 03:49:22;;;;;;;49.13;23.80;;;;;;;3.96;73.54;101164.38;5023293;28;20211;-67
2021/03/25 03:51:52;;;;;;;53.47;24.60;;;;;;;3.94;74.43;101168.84;5017072;28;20204;-66
2021/03/25 03:54:18;;;;;;;61.47;28.00;;;;;;;3.91;73.77;101167.16;5007454;28;20231;-64
2021/03/25 03:56:56;;;;;;;64.50;27.00;;;;;;;3.90;74.25;101172.47;5009208;28;20207;-66
2021/03/25 03:59:29;;;;;;;62.23;29.33;;;;;;;3.89;74.25;101176.88;5002707;28;20596;-63
2021/03/25 04:02:05;;;;;;;53.33;27.70;;;;;;;3.88;74.61;101172.50;5012132;28;20230;-66
2021/03/25 04:04:35;;;;;;;61.27;28.67;;;;;;;3.86;74.34;101173.44;5011836;28;20199;-65
2021/03/25 04:07:06;;;;;;;51.70;24.57;;;;;;;3.83;74.25;101170.00;5011009;28;20685;-65
2021/03/25 04:09:36;;;;;;;57.00;26.23;;;;;;;3.81;74.88;101176.22;5007129;28;20242;-65
2021/03/25 04:12:05;;;;;;;56.63;25.57;;;;;;;3.78;74.67;101165.75;5010680;28;20203;-66
2021/03/25 04:14:36;;;;;;;59.90;25.53;;;;;;;3.76;74.68;101171.06;5011579;28;20226;-62
2021/03/25 04:17:07;;;;;;;55.70;25.93;;;;;;;3.73;74.61;101176.44;5010368;28;20249;-65
2021/03/25 04:19:39;;;;;;;56.70;26.23;;;;;;;3.72;74.38;101172.06;5009580;28;20310;-66
2021/03/25 04:22:10;;;;;;;57.23;25.73;;;;;;;3.72;74.71;101173.84;5010564;28;20674;-66
2021/03/25 04:24:46;;;;;;;51.43;24.70;;;;;;;3.71;74.64;101177.38;5012076;28;20202;-64
2021/03/25 04:27:16;;;;;;;50.07;25.30;;;;;;;3.69;74.63;101168.66;5010084;28;20293;-65
2021/03/25 04:29:45;;;;;;;47.17;23.60;;;;;;;3.64;75.14;101173.16;5011266;28;20718;-65
2021/03/25 04:32:12;;;;;;;48.07;23.17;;;;;;;3.58;74.81;101175.97;5011094;28;20691;-65
2021/03/25 04:34:38;;;;;;;43.87;23.03;;;;;;;3.51;75.12;101177.03;5010867;28;20230;-64
2021/03/25 04:37:07;;;;;;;45.20;22.43;;;;;;;3.47;74.94;101182.38;5011121;28;20207;-66
2021/03/25 04:39:35;;;;;;;43.47;22.87;;;;;;;3.43;74.64;101175.44;5010440;28;20284;-66
2021/03/25 04:42:02;;;;;;;43.50;22.50;;;;;;;3.43;74.84;101177.22;5007461;28;20207;-64
2021/03/25 04:44:33;;;;;;;54.37;24.53;;;;;;;3.41;74.43;101186.91;5012166;28;20261;-66
2021/03/25 04:47:06;;;;;;;56.73;24.40;;;;;;;3.38;74.60;101177.34;5004110;28;20227;-64
2021/03/25 04:49:37;;;;;;;53.00;25.30;;;;;;;3.38;74.79;101182.63;5004181;28;20229;-64
2021/03/25 04:52:08;;;;;;;59.60;25.90;;;;;;;3.36;75.57;101184.44;5010380;28;20203;-64
2021/03/25 04:54:36;;;;;;;48.07;22.17;;;;;;;3.36;74.97;101188.81;5006627;28;20246;-62
2021/03/25 04:57:08;;;;;;;49.87;22.93;;;;;;;3.32;75.05;101180.13;5005911;28;20298;-64
2021/03/25 04:59:37;;;;;;;46.70;23.03;;;;;;;3.29;74.74;101190.72;5005053;28;20244;-65
2021/03/25 05:02:04;;;;;;;45.43;23.00;;;;;;;3.23;75.47;101187.38;5005204;28;20245;-63
2021/03/25 05:04:34;;;;;;;47.00;22.77;;;;;;;3.17;74.53;101182.28;5008444;28;20199;-64
2021/03/25 05:07:02;;;;;;;49.73;22.17;;;;;;;3.12;75.03;101185.88;5001781;28;20690;-64
2021/03/25 05:09:29;;;;;;;46.83;22.40;;;;;;;3.10;75.36;101187.69;5008016;28;20248;-63
2021/03/25 05:11:56;;;;;;;47.33;23.43;;;;;;;3.10;75.33;101189.44;5002580;28;20208;-64
2021/03/25 05:14:24;;;;;;;53.50;24.33;;;;;;;3.09;75.19;101188.59;5005574;28;20230;-64
2021/03/25 05:17:18;;;;;;;47.50;23.77;;;;;;;3.11;75.64;101185.91;5002421;28;20203;-64
2021/03/25 05:19:56;;;;;;;58.57;25.57;;;;;;;3.11;75.36;101196.44;5006668;28;21913;-64
2021/03/25 05:22:29;;;;;;;59.77;26.77;;;;;;;3.11;75.22;101194.69;5005083;28;20302;-65
2021/03/25 05:25:00;;;;;;;56.60;27.17;;;;;;;3.11;75.70;101194.69;4998533;28;20230;-65
2021/03/25 05:27:38;;;;;;;59.03;25.30;;;;;;;3.11;75.68;101193.81;4998227;28;20211;-63
2021/03/25 05:30:09;;;;;;;49.43;24.43;;;;;;;3.09;75.30;101196.47;5006017;28;20699;-64
2021/03/25 05:32:38;;;;;;;54.23;25.87;;;;;;;3.06;75.91;101195.69;5004563;28;20213;-63
2021/03/25 05:35:10;;;;;;;51.27;24.90;;;;;;;3.00;74.92;101201.09;5006742;28;20202;-63
2021/03/25 05:37:36;;;;;;;52.17;25.50;;;;;;;2.93;75.06;101205.63;5000390;28;20269;-64
2021/03/25 05:40:12;;;;;;;51.77;24.20;;;;;;;2.90;75.55;101204.84;5002729;28;20222;-64
2021/03/25 05:42:48;;;;;;;55.30;24.93;;;;;;;2.87;76.21;101204.91;5000045;28;20206;-64
2021/03/25 05:45:39;;;;;;;57.80;25.43;;;;;;;2.86;76.31;101208.47;4999179;28;20210;-64
2021/03/25 05:48:26;;;;;;;51.07;24.33;;;;;;;2.86;76.16;101208.47;5005448;28;20225;-63
2021/03/25 05:50:57;;;;;;;55.33;24.47;;;;;;;2.88;75.92;101206.63;5000298;28;20228;-63
2021/03/25 05:53:37;;;;;;;54.03;25.80;;;;;;;2.89;76.10;101198.72;5005817;28;20317;-63
2021/03/25 05:56:15;;;;;;;59.70;25.77;;;;;;;2.92;76.53;101200.41;5007396;28;20206;-63
2021/03/25 05:58:45;;;;;;;56.30;25.53;;;;;;;2.97;76.55;101211.69;5010252;28;20202;-63
2021/03/25 06:01:22;;;;;;;61.03;26.60;;;;;;;3.01;76.95;101218.63;5008508;28;20222;-64
2021/03/25 06:03:58;;;;;;;62.70;29.73;;;;;;;3.04;77.05;101218.56;5006918;28;20752;-63
2021/03/25 06:06:39;;;;;;;60.53;28.97;;;;;;;3.09;76.68;101221.94;5006847;28;20203;-63
2021/03/25 06:09:10;;;;;;;63.40;28.00;;;;;;;3.13;76.47;101223.59;5010814;28;20203;-65
2021/03/25 06:11:47;;;;;;;64.80;27.87;;;;;;;3.17;77.43;101222.63;5010261;28;20563;-64
2021/03/25 06:14:27;;;;;;;61.60;29.03;;;;;;;3.21;77.13;101216.41;5006917;28;20601;-64
2021/03/25 06:17:15;;;;;;;61.57;27.77;;;;;;;3.27;77.32;101224.13;5006754;28;20558;-64
2021/03/25 06:19:58;;;;;;;68.60;28.60;;;;;;;3.32;77.15;101230.16;5023877;22;20700;-62
2021/03/25 06:22:30;;;;;;;64.13;30.10;;;;;;;3.38;77.38;101224.75;5013636;28;20218;-63
2021/03/25 06:25:21;;;;;;;61.57;27.73;;;;;;;3.41;77.07;101229.91;5005141;28;20694;-64
2021/03/25 06:28:12;;;;;;;67.70;29.77;;;;;;;3.46;78.02;101232.44;5005233;28;20218;-63
2021/03/25 06:30:42;;;;;;;65.27;28.53;;;;;;;3.51;77.50;101237.59;5013910;28;20273;-63
2021/03/25 06:33:15;;;;;;;63.77;27.80;;;;;;;3.54;77.31;101233.13;5012191;28;20683;-63
2021/03/25 06:35:46;;;;;;;59.77;29.37;;;;;;;3.56;77.20;101228.69;5021457;28;20206;-65
2021/03/25 06:38:19;;;;;;;72.13;30.00;;;;;;;3.61;77.83;101231.19;5009129;28;20207;-65
2021/03/25 06:40:51;;;;;;;74.23;32.20;;;;;;;3.66;77.84;101239.84;5004934;28;20593;-64
2021/03/25 06:43:26;;;;;;;70.80;31.90;;;;;;;3.69;78.02;101238.00;5013710;28;20210;-64
2021/03/25 06:45:58;;;;;;;72.97;32.40;;;;;;;3.75;78.26;101244.88;5013122;28;20206;-65
2021/03/25 06:48:35;;;;;;;82.23;33.87;;;;;;;3.80;78.67;101241.22;5013167;28;20575;-65
2021/03/25 06:51:15;;;;;;;77.07;33.23;;;;;;;3.90;79.08;101246.25;5003025;28;20477;-63
2021/03/25 06:53:43;;;;;;;82.77;34.80;;;;;;;4.00;79.14;101245.09;4997402;28;20326;-63
2021/03/25 06:56:11;;;;;;;81.50;35.83;;;;;;;4.09;79.34;101243.09;5000270;28;20299;-63
2021/03/25 06:58:42;;;;;;;81.50;34.77;;;;;;;4.21;79.01;101241.00;5003053;28;20207;-63
2021/03/25 07:01:21;;;;;;;79.70;35.00;;;;;;;4.32;79.04;101238.94;4998724;28;20230;-63
2021/03/25 07:03:48;;;;;;;73.27;32.77;;;;;;;4.40;79.00;101240.44;4999443;28;20206;-63
2021/03/25 07:06:14;;;;;;;65.43;29.60;;;;;;;4.47;79.46;101239.38;5000098;28;20207;-63
2021/03/25 07:08:40;;;;;;;69.17;30.73;;;;;;;4.54;79.96;101235.63;5001055;28;20675;-63
2021/03/25 07:11:14;;;;;;;74.77;32.67;;;;;;;4.66;79.41;101247.59;4996696;28;20229;-62
2021/03/25 07:13:45;;;;;;;73.27;32.57;;;;;;;4.77;79.53;101250.78;4999004;28;20233;-64
2021/03/25 07:16:12;;;;;;;76.37;33.00;;;;;;;4.87;79.78;101261.94;5008072;28;20221;-64
2021/03/25 07:18:51;;;;;;;68.97;31.97;;;;;;;4.97;80.07;101249.34;5002035;28;20216;-65
2021/03/25 07:21:23;;;;;;;71.77;33.83;;;;;;;5.09;79.88;101263.00;5000287;28;20338;-64
2021/03/25 07:23:49;;;;;;;71.10;34.40;;;;;;;5.18;79.68;101251.31;4998339;28;20661;-65
2021/03/25 07:26:24;;;;;;;82.60;35.00;;;;;;;5.28;79.66;101259.78;4999727;28;20203;-64
2021/03/25 07:29:28;;;;;;;74.77;33.83;;;;;;;5.38;79.60;101264.72;4999827;28;20751;-64
2021/03/25 07:31:59;;;;;;;74.97;34.37;;;;;;;5.49;79.61;101261.75;4998829;28;20225;-63
2021/03/25 07:34:31;;;;;;;88.03;36.83;;;;;;;5.57;80.07;101263.22;5000872;28;20230;-64
2021/03/25 07:36:59;;;;;;;85.70;37.67;;;;;;;5.70;79.77;101270.75;4999784;28;20313;-62
2021/03/25 07:39:28;;;;;;;92.47;40.20;;;;;;;5.81;79.82;101268.59;5002211;28;20199;-63
2021/03/25 07:41:56;;;;;;;87.87;38.53;;;;;;;5.89;79.32;101266.59;5000143;28;20253;-64
2021/03/25 07:44:37;;;;;;;81.67;37.07;;;;;;;5.98;79.49;101274.22;4998745;28;20208;-63
2021/03/25 07:47:06;;;;;;;85.77;37.27;;;;;;;6.05;79.36;101273.09;5001004;28;20285;-64
2021/03/25 07:49:34;;;;;;;80.53;38.23;;;;;;;6.11;79.37;101275.50;5001385;28;20269;-64
2021/03/25 07:52:02;;;;;;;83.83;36.80;;;;;;;6.17;79.32;101262.06;4999756;28;20211;-65
2021/03/25 07:54:32;;;;;;;81.27;36.30;;;;;;;6.25;79.36;101269.75;4997280;28;20238;-64
2021/03/25 07:57:05;;;;;;;79.57;36.83;;;;;;;6.33;79.10;101266.81;4998160;28;20203;-64
2021/03/25 07:59:46;;;;;;;81.23;36.90;;;;;;;6.42;79.25;101266.50;5001778;28;20261;-65
2021/03/25 08:02:27;;;;;;;75.93;35.67;;;;;;;6.48;78.83;101267.13;5006446;28;20211;-64
2021/03/25 08:04:54;;;;;;;83.07;36.97;;;;;;;6.57;78.76;101265.94;4996804;28;20200;-64
2021/03/25 08:07:21;;;;;;;81.00;36.20;;;;;;;6.64;78.80;101256.81;4998898;28;20208;-64
2021/03/25 08:09:52;;;;;;;82.40;37.17;;;;;;;6.70;78.53;101261.91;4995887;28;20258;-62
2021/03/25 08:12:26;;;;;;;80.83;37.67;;;;;;;6.79;78.36;101266.00;4994311;28;20239;-64
2021/03/25 08:15:22;;;;;;;80.90;38.47;;;;;;;6.87;78.24;101272.72;4994893;28;20727;-63
2021/03/25 08:18:03;;;;;;;84.97;38.63;;;;;;;7.00;78.17;101277.53;4992963;28;20207;-63
2021/03/25 08:20:36;;;;;;;90.27;39.63;;;;;;;7.10;77.83;101276.25;4995839;28;20600;-63
2021/03/25 08:23:28;;;;;;;85.03;38.27;;;;;;;7.21;78.12;101274.91;4995054;28;20242;-63
2021/03/25 08:26:01;;;;;;;77.57;37.43;;;;;;;7.30;77.60;101266.59;4995247;28;20246;-62
2021/03/25 08:29:02;;;;;;;84.97;38.10;;;;;;;7.42;76.81;101270.53;4994927;28;20215;-63
2021/03/25 08:31:40;;;;;;;83.43;39.27;;;;;;;7.53;77.58;101263.00;4984343;28;20227;-63
2021/03/25 08:34:26;;;;;;;92.93;38.53;;;;;;;7.66;77.07;101258.94;4993734;28;20708;-63
2021/03/25 08:37:11;;;;;;;81.60;39.77;;;;;;;7.78;76.94;101260.22;4992858;28;20290;-63
2021/03/25 08:39:45;;;;;;;81.30;39.13;;;;;;;7.91;76.79;101264.06;4995237;28;20725;-64
2021/03/25 08:42:18;;;;;;;83.23;39.10;;;;;;;8.02;75.87;101269.78;4993038;28;20286;-64
2021/03/25 08:44:52;;;;;;;83.77;39.90;;;;;;;8.15;75.67;101272.75;4995895;28;20203;-64
2021/03/25 08:47:24;;;;;;;82.17;39.53;;;;;;;8.26;75.46;101267.84;4995241;28;20216;-65
2021/03/25 08:50:16;;;;;;;83.83;40.83;;;;;;;8.34;75.07;101270.22;4994563;28;20712;-64
2021/03/25 08:52:44;;;;;;;90.53;41.27;;;;;;;8.44;75.36;101263.53;4997754;28;20585;-64
2021/03/25 08:55:24;;;;;;;85.87;40.00;;;;;;;8.56;74.85;101268.31;4997563;28;20258;-64
2021/03/25 08:57:53;;;;;;;86.80;41.37;;;;;;;8.70;74.39;101273.00;4995765;28;20581;-65
2021/03/25 09:00:23;;;;;;;87.17;42.87;;;;;;;8.84;74.10;101269.69;4994380;28;20234;-65
2021/03/25 09:02:52;;;;;;;87.07;40.37;;;;;;;8.99;74.13;101268.97;4993795;28;20204;-64
2021/03/25 09:05:23;;;;;;;82.97;40.63;;;;;;;9.16;73.83;101270.84;4992630;28;20207;-63
2021/03/25 09:07:50;;;;;;;87.17;42.30;;;;;;;9.30;73.85;101263.97;4992533;28;20278;-64
2021/03/25 09:10:33;;;;;;;81.97;39.63;;;;;;;9.46;72.81;101264.06;4996848;28;20225;-64
2021/03/25 09:12:59;;;;;;;85.00;41.17;;;;;;;9.62;72.06;101267.69;4995877;28;20314;-64
2021/03/25 09:15:26;;;;;;;91.87;42.63;;;;;;;9.73;71.58;101265.34;4995370;28;20222;-64
2021/03/25 09:17:56;;;;;;;87.47;40.30;;;;;;;9.84;70.60;101266.63;4994395;28;20602;-64
2021/03/25 09:20:27;;;;;;;86.27;42.60;;;;;;;9.97;70.43;101257.94;4992132;28;20726;-63
2021/03/25 09:22:57;;;;;;;83.73;40.00;;;;;;;10.08;69.69;101268.88;4993126;28;20207;-64
2021/03/25 09:25:41;;;;;;;86.07;40.83;;;;;;;10.24;69.45;101270.78;4993231;28;20301;-63
2021/03/25 09:28:20;;;;;;;72.97;38.87;;;;;;;10.39;69.39;101268.16;4995454;28;20203;-64
2021/03/25 09:31:13;;;;;;;73.13;36.97;;;;;;;10.55;68.35;101264.72;4996457;28;20254;-64
2021/03/25 09:33:43;;;;;;;69.73;34.80;;;;;;;10.67;67.27;101266.72;4995756;28;20321;-64
2021/03/25 09:36:50;;;;;;;72.33;37.57;;;;;;;10.80;66.86;101262.44;4994650;28;20314;-65
2021/03/25 09:39:31;;;;;;;72.17;38.10;;;;;;;10.93;66.14;101258.16;4993097;28;20226;-64
2021/03/25 09:42:00;;;;;;;71.30;36.73;;;;;;;11.04;65.83;101258.44;4997227;28;20207;-64
2021/03/25 09:44:30;;;;;;;71.37;35.90;;;;;;;11.17;65.26;101273.72;4996739;28;20290;-63
2021/03/25 09:47:17;;;;;;;66.97;36.07;;;;;;;11.26;65.15;101266.09;4996687;28;20208;-64
2021/03/25 09:49:45;;;;;;;74.60;37.10;;;;;;;11.39;64.84;101256.44;4995342;28;20692;-64
2021/03/25 09:52:28;;;;;;;68.83;36.30;;;;;;;11.55;64.49;101250.22;4994437;28;20579;-64
2021/03/25 09:55:23;;;;;;;71.53;37.60;;;;;;;11.70;63.84;101255.53;4999310;28;20304;-66
2021/03/25 09:57:50;;;;;;;75.17;38.53;;;;;;;11.81;63.29;101246.94;5004229;28;20206;-67
2021/03/25 10:00:56;;;;;;;69.40;37.17;;;;;;;11.92;63.29;101246.28;5001708;28;20315;-67
2021/03/25 10:04:05;;;;;;;69.20;36.57;;;;;;;12.02;62.92;101240.31;5010001;28;20627;-67
2021/03/25 10:06:51;;;;;;;73.97;37.73;;;;;;;12.10;62.36;101242.53;5008548;28;20228;-66
2021/03/25 10:09:17;;;;;;;69.50;36.33;;;;;;;12.16;62.29;101239.50;5009405;28;20203;-67
2021/03/25 10:11:54;;;;;;;73.50;36.73;;;;;;;12.25;62.14;101240.72;5010008;28;20231;-67
2021/03/25 10:14:53;;;;;;;74.50;37.27;;;;;;;12.34;61.71;101238.38;5009514;28;20230;-67
2021/03/25 10:17:46;;;;;;;70.47;35.90;;;;;;;12.42;61.15;101236.06;5009820;28;20668;-67
2021/03/25 10:20:29;;;;;;;72.10;37.83;;;;;;;12.48;60.89;101238.38;5010150;28;20252;-67
2021/03/25 10:22:56;;;;;;;69.47;37.73;;;;;;;12.58;60.64;101229.78;4994111;28;20235;-66
2021/03/25 10:25:27;;;;;;;76.63;38.10;;;;;;;12.66;60.32;101233.69;5010235;28;20206;-67
2021/03/25 10:27:59;;;;;;;67.17;36.80;;;;;;;12.73;60.02;101236.81;5006524;28;20262;-67
2021/03/25 10:30:29;;;;;;;71.33;36.47;;;;;;;12.75;59.47;101234.91;5010238;28;20317;-66
2021/03/25 10:32:57;;;;;;;70.67;35.57;;;;;;;12.75;59.03;101233.09;5009868;28;20205;-67
2021/03/25 10:35:29;;;;;;;71.43;37.97;;;;;;;12.76;58.79;101228.63;5009310;28;20231;-66
2021/03/25 10:37:59;;;;;;;75.03;38.30;;;;;;;12.82;58.56;101230.91;5011454;28;20635;-67
2021/03/25 10:40:31;;;;;;;73.17;36.97;;;;;;;12.91;58.25;101227.63;5013620;28;20242;-67
2021/03/25 10:43:01;;;;;;;68.47;36.47;;;;;;;13.00;58.03;101231.56;5010324;28;20222;-67
2021/03/25 10:45:34;;;;;;;71.43;37.20;;;;;;;13.10;57.48;101225.50;5013140;28;20242;-67
2021/03/25 10:48:03;;;;;;;69.17;37.13;;;;;;;13.23;57.38;101219.41;5008798;28;20612;-67
2021/03/25 10:50:34;;;;;;;73.27;37.13;;;;;;;13.29;56.92;101225.19;5003540;28;20621;-67
2021/03/25 10:53:11;;;;;;;68.90;36.57;;;;;;;13.30;56.66;101215.34;5010908;28;20195;-67
2021/03/25 10:55:40;;;;;;;68.87;37.27;;;;;;;13.33;56.48;101207.13;5013179;28;20230;-67
2021/03/25 10:58:16;;;;;;;65.53;36.33;;;;;;;13.43;56.78;101213.63;5012535;28;20281;-65
2021/03/25 11:00:42;;;;;;;72.73;38.37;;;;;;;13.52;56.62;101210.31;5011965;28;20226;-67
2021/03/25 11:03:28;;;;;;;65.60;37.57;;;;;;;13.57;56.58;101213.53;5012292;28;20260;-67
2021/03/25 11:05:57;;;;;;;71.90;37.30;;;;;;;13.57;56.43;101208.19;5008452;28;20238;-66
2021/03/25 11:08:32;;;;;;;68.90;36.60;;;;;;;13.61;56.00;101208.84;5013090;28;20211;-65
2021/03/25 11:11:01;;;;;;;75.43;37.20;;;;;;;13.61;56.14;101204.34;5013254;28;20222;-66
2021/03/25 11:13:27;;;;;;;71.30;38.23;;;;;;;13.65;55.80;101204.97;5011276;28;20203;-66
2021/03/25 11:15:59;;;;;;;67.70;37.33;;;;;;;13.67;55.75;101200.38;5012522;28;20302;-66
2021/03/25 11:18:30;;;;;;;72.20;38.53;;;;;;;13.69;55.22;101203.81;5012481;28;20260;-66
2021/03/25 11:20:57;;;;;;;72.80;37.53;;;;;;;13.70;55.75;101208.22;5012424;28;20317;-66
2021/03/25 11:23:26;;;;;;;69.60;38.13;;;;;;;13.73;55.34;101198.16;5012957;28;20617;-65
2021/03/25 11:25:56;;;;;;;70.53;38.57;;;;;;;13.78;55.65;101208.56;5004005;28;20199;-66
2021/03/25 11:28:23;;;;;;;69.03;37.10;;;;;;;13.77;55.76;101190.78;5010913;28;20205;-65
2021/03/25 11:30:51;;;;;;;72.23;37.90;;;;;;;13.83;55.13;101193.03;5012712;28;20337;-65
2021/03/25 11:33:25;;;;;;;74.60;39.10;;;;;;;13.86;55.23;101190.16;5012304;28;20231;-66
2021/03/25 11:35:52;;;;;;;75.23;37.97;;;;;;;13.86;54.91;101193.69;5007208;28;20207;-65
2021/03/25 11:38:31;;;;;;;68.93;36.97;;;;;;;13.87;55.08;101192.72;5013203;28;20720;-66
2021/03/25 11:41:01;;;;;;;74.80;37.57;;;;;;;13.93;54.79;101195.94;5011982;28;20226;-65